Carolina Hills, North Carolina
Current Conditions -  °F | °C
As of 12:54 AM on Friday 28 Nov 2014 (Local Time) from KAVL Reporting Station
Overcast Overcast  
Wind Chill: 16°   Ceiling: 3600
Heat Index: 28°   Visibility: 10mi
Dew Point: 15°   Wind: 16mph
Humidity: 58%   Direction: 340°NNW
Pressure: 30.28"   Gusts: 23mph
Location:  35.4492°N, 82.4624°W
Report Text: KAVL 280554Z AUTO 34014G20KT 10SM OVC036 M02/M09 A3028 RMK AO2 SLP264 60000 T10221094 10006 21022 53007
Loading
Personal Weather Stations






























Interactive Weather Map New forecast layout! Learn more

10-Day Weather Forecast

Advertisements
Track Severe Weather on mobile